OOCL Kaohsiung — 9V9830 — position and weather

sailwx.info

Track history (hours):
 
Tides and Currents Weather Stations Pressure Air Temp Water Temp Dewpoint Dewpoint Depression Visibility Wind Speed Wind Dir Waves Ship Positions

OOCL Kaohsiung

Last reported at 2018-Feb-16 09:47 UTC. Time now 2018-Feb-20 19:21 UTC.
Position S 34°46' E 138°30'.

Length 280 m; draft 12.7 m.

Type: Ship. MMSI: 566389000.

Date/timePositionNaut miles runAvg speedWind from/ knotsBaromVisibWave heightAir tempDewpointWater temp
2018-Feb-16 09:47S 34°46' E 138°30'0 0.0
2018-Feb-16 09:29S 34°46' E 138°30'0 0.0
2018-Feb-15 08:39S 34°46' E 138°30'0 0.1
2018-Feb-15 08:30S 34°46' E 138°30'14 5.2
2018-Feb-15 05:55S 34°54' E 138°16'3 7.9
2018-Feb-15 05:31S 34°57' E 138°14'37810.2
2018-Feb-13 16:33S 38°15' E 144°55'218.0
2018-Feb-13 16:28S 38°14' E 144°55'917.9
2018-Feb-13 15:58S 38°05' E 144°55'815.4
2018-Feb-13 15:28S 37°57' E 144°56'511.7
2018-Feb-13 15:00S 37°52' E 144°55'3 5.0
2018-Feb-13 14:30S 37°49' E 144°55'0 0.1
2018-Feb-13 09:01S 37°49' E 144°55'0 0.0
2018-Feb-13 08:46S 37°49' E 144°55'0 0.0
2018-Feb-13 07:58S 37°49' E 144°55'184 3.9
2018-Feb-11 08:59S 38°25' E 148°44'816.6
2018-Feb-11 08:30S 38°21' E 148°53'917.0
2018-Feb-11 07:58S 38°17' E 149°02'816.8
2018-Feb-11 07:29S 38°12' E 149°11'3016.7
2018-Feb-11 05:40S 37°57' E 149°44'316.7
2018-Feb-11 05:29S 37°55' E 149°47'17616.8
2018-Feb-10 19:01S 35°11' E 151°07'017.7
2018-Feb-10 19:00S 35°11' E 151°07'917.8
2018-Feb-10 18:30S 35°02' E 151°09'1117.6
2018-Feb-10 17:54S 34°52' E 151°12'717.5
2018-Feb-10 17:30S 34°45' E 151°14'1317.4
2018-Feb-10 16:45S 34°32' E 151°16'417.8
2018-Feb-10 16:30S 34°28' E 151°16'1517.9
2018-Feb-10 15:39S 34°12' E 151°16'317.9
2018-Feb-10 15:28S 34°09' E 151°16'715.2
2018-Feb-10 15:00S 34°02' E 151°16'  
2018-Feb-08 07:00S 37°58' E 149°48'2214.5
2018-Feb-08 05:30S 38°12' E 149°26'7017.4
2018-Feb-08 01:30S 38°48' E 148°10'919.2
2018-Feb-08 01:00S 38°51' E 147°58'1219.2
2018-Feb-08 00:24S 38°55' E 147°44'5620.9
2018-Feb-07 21:43S 39°15' E 146°37'421.3
2018-Feb-07 21:31S 39°17' E 146°32'25320.7
2018-Feb-07 09:17S 38°45' E 141°09'620.5
2018-Feb-07 09:00S 38°44' E 141°02'1020.6
2018-Feb-07 08:30S 38°43' E 140°49'1020.7
2018-Feb-07 08:00S 38°41' E 140°36'1020.7
2018-Feb-07 07:30S 38°39' E 140°23'1020.6
2018-Feb-07 07:00S 38°37' E 140°10'2420.9
2018-Feb-07 05:52S 38°34' E 139°40'820.9
2018-Feb-07 05:30S 38°33' E 139°30'10720.8
2018-Feb-07 00:23S 38°15' E 137°15'920.8
2018-Feb-06 23:57S 38°14' E 137°04'1420.7
2018-Feb-06 23:16S 38°12' E 136°47'1020.7
2018-Feb-06 22:46S 38°10' E 136°33'620.8
2018-Feb-06 22:29S 38°09' E 136°26'2720.7
2018-Feb-06 21:10S 38°05' E 135°52'520.7
2018-Feb-06 20:56S 38°04' E 135°46'  
Track history (hours):
 
Tides and Currents Weather Stations Pressure Air Temp Water Temp Dewpoint Dewpoint Depression Visibility Wind Speed Wind Dir Waves Ship Positions

OOCL Kaohsiung

Last reported at 2018-Feb-16 09:47 UTC. Time now 2018-Feb-20 19:21 UTC.
Position S 34°46' E 138°30'.

Length 280 m; draft 12.7 m.

Type: Ship. MMSI: 566389000.

Date/timePositionNaut miles runAvg speedWind from/ knotsBaromVisibWave heightAir tempDewpointWater temp
2018-Feb-16 09:47S 34°46' E 138°30'0 0.0
2018-Feb-16 09:29S 34°46' E 138°30'0 0.0
2018-Feb-15 08:39S 34°46' E 138°30'0 0.1
2018-Feb-15 08:30S 34°46' E 138°30'14 5.2
2018-Feb-15 05:55S 34°54' E 138°16'3 7.9
2018-Feb-15 05:31S 34°57' E 138°14'37810.2
2018-Feb-13 16:33S 38°15' E 144°55'218.0
2018-Feb-13 16:28S 38°14' E 144°55'917.9
2018-Feb-13 15:58S 38°05' E 144°55'815.4
2018-Feb-13 15:28S 37°57' E 144°56'511.7
2018-Feb-13 15:00S 37°52' E 144°55'3 5.0
2018-Feb-13 14:30S 37°49' E 144°55'0 0.1
2018-Feb-13 09:01S 37°49' E 144°55'0 0.0
2018-Feb-13 08:46S 37°49' E 144°55'0 0.0
2018-Feb-13 07:58S 37°49' E 144°55'184 3.9
2018-Feb-11 08:59S 38°25' E 148°44'816.6
2018-Feb-11 08:30S 38°21' E 148°53'917.0
2018-Feb-11 07:58S 38°17' E 149°02'816.8
2018-Feb-11 07:29S 38°12' E 149°11'3016.7
2018-Feb-11 05:40S 37°57' E 149°44'316.7
2018-Feb-11 05:29S 37°55' E 149°47'17616.8
2018-Feb-10 19:01S 35°11' E 151°07'017.7
2018-Feb-10 19:00S 35°11' E 151°07'917.8
2018-Feb-10 18:30S 35°02' E 151°09'1117.6
2018-Feb-10 17:54S 34°52' E 151°12'717.5
2018-Feb-10 17:30S 34°45' E 151°14'1317.4
2018-Feb-10 16:45S 34°32' E 151°16'417.8
2018-Feb-10 16:30S 34°28' E 151°16'1517.9
2018-Feb-10 15:39S 34°12' E 151°16'317.9
2018-Feb-10 15:28S 34°09' E 151°16'715.2
2018-Feb-10 15:00S 34°02' E 151°16'  
2018-Feb-08 07:00S 37°58' E 149°48'2214.5
2018-Feb-08 05:30S 38°12' E 149°26'7017.4
2018-Feb-08 01:30S 38°48' E 148°10'919.2
2018-Feb-08 01:00S 38°51' E 147°58'1219.2
2018-Feb-08 00:24S 38°55' E 147°44'5620.9
2018-Feb-07 21:43S 39°15' E 146°37'421.3
2018-Feb-07 21:31S 39°17' E 146°32'25320.7
2018-Feb-07 09:17S 38°45' E 141°09'620.5
2018-Feb-07 09:00S 38°44' E 141°02'1020.6
2018-Feb-07 08:30S 38°43' E 140°49'1020.7
2018-Feb-07 08:00S 38°41' E 140°36'1020.7
2018-Feb-07 07:30S 38°39' E 140°23'1020.6
2018-Feb-07 07:00S 38°37' E 140°10'2420.9
2018-Feb-07 05:52S 38°34' E 139°40'820.9
2018-Feb-07 05:30S 38°33' E 139°30'10720.8
2018-Feb-07 00:23S 38°15' E 137°15'920.8
2018-Feb-06 23:57S 38°14' E 137°04'1420.7
2018-Feb-06 23:16S 38°12' E 136°47'1020.7
2018-Feb-06 22:46S 38°10' E 136°33'620.8
2018-Feb-06 22:29S 38°09' E 136°26'2720.7
2018-Feb-06 21:10S 38°05' E 135°52'520.7
2018-Feb-06 20:56S 38°04' E 135°46'  

Dump ship's entire track history